Řízení letového provozu České republiky  
Aktualizace dat:  21.04.2018 03:26:07 UTC English version
   METEO Zobrazení stránky:  21.04.2018 03:26:30 UTC  
vysvětlivky
METAR EDDB 210320Z 24004KT CAVOK 12/10 Q1018 NOSIG=
METAR EDDC 210320Z 21004KT CAVOK 13/09 Q1018=
METAR EDDE 210320Z 23007KT CAVOK 11/09 Q1019=
METAR EDDF 210320Z 19002KT CAVOK 10/09 Q1019 NOSIG=
METAR EDDM 210320Z 00000KT CAVOK 06/05 Q1020 NOSIG=
METAR EDDN 210320Z 10006KT CAVOK 10/05 Q1019=
METAR EDDP 210320Z 32005KT CAVOK 13/11 Q1018 NOSIG=
METAR EDDT 210320Z 25004KT CAVOK 12/09 Q1018 NOSIG=
METAR EDQM NIL
METAR EPBY 210300Z 24008KT CAVOK 10/08 Q1015 =
METAR EPGD 210300Z 28014KT CAVOK 13/08 Q1012 =
METAR EPKK 210300Z 21001KT CAVOK 06/03 Q1019 =
METAR EPKT 210300Z VRB02KT CAVOK 05/02 Q1018 =
METAR EPLL 210300Z 22004KT 190V250 CAVOK 11/03 Q1016 =
METAR EPPO 210300Z 28003KT CAVOK 13/10 Q1016 =
METAR EPRZ 210300Z 21004KT CAVOK 07/03 Q1019 =
METAR EPWA 210300Z 20003KT CAVOK 08/04 Q1015 NOSIG=
METAR EPWR 210300Z VRB01KT CAVOK 08/06 Q1018 =
METAR LHBP 210300Z VRB01KT CAVOK 05/04 Q1022 NOSIG=
METAR LHSM NIL
METAR LKCV 210300Z 14004KT CAVOK 12/08 Q1020 NOSIG RMK BLACK=
METAR LKKB 210300Z 20003KT 180V250 CAVOK 12/08 Q1020 RMK BLU=
METAR LKKU NIL
METAR LKKV 210300Z 19002KT CAVOK 08/05 Q1020 RMK REG QNH 1016=
METAR LKLN 210300Z AUTO VRB01KT CAVOK 08/07 Q1020=
METAR LKMT 210301Z 23004KT CAVOK 07/03 Q1020 NOSIG=
METAR LKNA 210300Z 35004KT CAVOK 11/08 Q1021 NOSIG RMK BLU=
METAR LKPD 210300Z 24002KT CAVOK 07/07 Q1020 RMK BLU=
METAR LKPR 210300Z 21005KT CAVOK 11/06 Q1019 NOSIG RMK REG QNH 1016=
METAR LKTB 210300Z 12002KT CAVOK 08/05 Q1020 NOSIG RMK REG QNH 1016=
METAR LKVO NIL
METAR LOWI 210320Z AUTO VRB01KT 9999 NSC 08/04 Q1023=
METAR LOWL 210320Z 21004KT CAVOK 09/06 Q1020 NOSIG=
METAR LOWS 210320Z AUTO 15011KT 9999 NSC 14/04 Q1020=
METAR LOWW 210320Z 17003KT 130V190 CAVOK 09/06 Q1020 NOSIG=
METAR LZIB 210300Z 06004KT 040V110 CAVOK 09/05 Q1021=
METAR LZKZ 210300Z 29002KT CAVOK 05/02 Q1022=
METAR LZPP 210300Z AUTO 33003KT 9999 NCD 05/03 Q1022=
METAR LZSL 210300Z 00000KT CAVOK 05/03 Q1023=
METAR LZTT 210300Z VRB01KT CAVOK 02/M02 Q1022=
METAR LZZI 210300Z VRB02KT CAVOK 05/02 Q1022=